• Join FlightAware (Why Join?)
  • Login
  • US Flag 
08:27PM EDT


 

Airport Tracker/Info


-or-


 

Live Flight TrackerFlight Track Log ✈ EJA929 ✈ 04-Jun-2013 ✈ KPWK - KAPC

Flight Track Log - Related Links

Times and Time Zones

All times are in EDT time to prevent confusion due to time zone crossing. See the EJA929 flight status page for this flight to view local times or setup timezone preferences in your user account.

Time Position Orientation Groundspeed Altitude Reporting Facility
EDT Latitude Longitude Course Direction KTS MPH feet Rate Location/Type
01:08PM 42.1000 -87.9333 North 204 235 2,900  Level Chicago TRACON
01:09PM 42.1289 -87.9300 North 239 275 3,000 1,920 Climbing Chicago Center
01:10PM 42.1828 -87.8892 29° Northeast 225 259 6,400 3,840 Climbing Chicago Center
01:11PM 42.2553 -87.8372 28° Northeast 246 283 11,000 3,660 Climbing Chicago Center
01:12PM 42.3353 -87.8197 North 295 339 14,000 2,340 Climbing Chicago Center
01:13PM 42.4158 -87.8639 338° Northwest 313 360 15,800 1,140 Climbing Chicago Center
01:14PM 42.5094 -87.9200 336° Northwest 361 415 16,400 900 Climbing Chicago Center
01:15PM 42.6092 -87.9783 337° Northwest 386 444 17,700 1,440 Climbing Chicago Center
01:16PM 42.7083 -88.0389 336° Northwest 390 449 19,400 1,740 Climbing Chicago Center
01:17PM 42.8142 -88.1311 327° Northwest 398 458 21,400 1,740 Climbing Chicago Center
01:18PM 42.8619 -88.2575 297° West 373 429 23,100 1,620 Climbing Chicago Center
01:19PM 42.9075 -88.3911 295° West 383 441 24,800 1,620 Climbing Chicago Center
01:20PM 42.9542 -88.5261 295° West 388 447 26,500 1,620 Climbing Chicago Center
01:21PM 43.0011 -88.6644 295° West 396 456 28,200 1,620 Climbing Chicago Center
01:22PM 43.0489 -88.8033 295° West 399 459 29,900 1,680 Climbing Chicago Center
01:23PM 43.0967 -88.9447 295° West 404 465 31,700 1,800 Climbing Chicago Center
01:24PM 43.1539 -89.1128 295° West 413 475 33,700 1,800 Climbing Chicago Center
01:25PM 43.2031 -89.2592 295° West 418 481 35,400 1,620 Climbing Chicago Center
01:26PM 43.2525 -89.4069 295° West 423 487 37,100 1,680 Climbing Chicago Center
01:27PM 43.3017 -89.5517 295° West 419 482 38,900 1,680 Climbing Chicago Center
01:28PM 43.3453 -89.6917 293° West 404 465 40,600 1,260 Climbing Chicago Center
01:29PM 43.3914 -89.8297 295° West 399 459 41,600 720 Climbing Chicago Center
01:30PM 43.4439 -89.9922 294° West 401 461 42,200 420 Climbing Chicago Center
01:31PM 43.4914 -90.1372 294° West 412 474 42,500 240 Climbing Chicago Center
01:32PM 43.5383 -90.2872 293° West 425 489 42,800 240 Climbing Chicago Center
01:34PM 43.5856 -90.4300 295° West 432 497 43,000 60 Climbing Chicago Center
01:34PM 43.6258 -90.5539 294° West 440 506 43,000  Level Minneapolis Center
01:35PM 43.6775 -90.7131 294° West 452 520 43,000  Level Minneapolis Center
01:36PM 43.6964 -90.7786 292° West 463 533 43,000  Level Chicago Center
01:36PM 43.7272 -90.8764 294° West 463 533 43,000  Level Minneapolis Center
01:37PM 43.7364 -91.0506 274° West 464 534 43,000  Level Minneapolis Center
01:38PM 43.7331 -91.2594 269° West 461 531 43,000  Level Minneapolis Center
01:39PM 43.7311 -91.4339 269° West 460 529 43,000  Level Minneapolis Center
01:40PM 43.7303 -91.6086 270° West 461 531 43,000  Level Minneapolis Center
01:41PM 43.7278 -91.7836 269° West 461 531 43,000  Level Minneapolis Center
01:42PM 43.7256 -91.9569 269° West 458 527 43,000  Level Minneapolis Center
01:44PM 43.7228 -92.1661 269° West 460 529 43,000  Level Minneapolis Center
01:45PM 43.7203 -92.3400 269° West 458 527 43,000  Level Minneapolis Center
01:46PM 43.7169 -92.5122 269° West 453 521 43,000  Level Minneapolis Center
01:47PM 43.7136 -92.6850 269° West 454 522 43,000  Level Minneapolis Center
01:48PM 43.7086 -92.8936 268° West 456 525 43,000  Level Minneapolis Center
01:49PM 43.7050 -93.0672 268° West 458 527 43,000  Level Minneapolis Center
01:50PM 43.7017 -93.2322 268° West 456 525 43,000  Level Minneapolis Center
01:51PM 43.6969 -93.4078 268° West 457 526 43,000  Level Minneapolis Center
01:52PM 43.6922 -93.6203 268° West 460 529 43,000  Level Minneapolis Center
01:53PM 43.6869 -93.7958 268° West 458 527 43,000  Level Minneapolis Center
01:54PM 43.6819 -93.9722 268° West 459 528 43,000  Level Minneapolis Center
01:55PM 43.6758 -94.1469 267° West 459 528 43,000  Level Minneapolis Center
01:56PM 43.6694 -94.3233 267° West 459 528 43,000  Level Minneapolis Center
01:57PM 43.6644 -94.4992 268° West 458 527 43,000  Level Minneapolis Center
01:58PM 43.6553 -94.7161 267° West 469 540 43,000  Level Minneapolis Center
01:59PM 43.6489 -94.8942 267° West 468 539 43,000  Level Minneapolis Center
02:00PM 43.6411 -95.0728 267° West 466 536 43,000  Level Minneapolis Center
02:01PM 43.6342 -95.2519 267° West 467 537 43,000  Level Minneapolis Center
02:02PM 43.6272 -95.4186 267° West 445 512 43,000  Level Minneapolis Center
02:03PM 43.6186 -95.5847 266° West 436 502 43,000  Level Minneapolis Center
02:04PM 43.6097 -95.7881 267° West 440 506 43,100  Climbing Minneapolis Center
02:05PM 43.6025 -95.9617 267° West 449 517 43,000 -60 Descending Minneapolis Center
02:06PM 43.5933 -96.1328 266° West 447 514 43,000  Level Minneapolis Center
02:07PM 43.5839 -96.3031 266° West 446 513 43,000  Level Minneapolis Center
02:08PM 43.5753 -96.4758 266° West 449 517 43,000  Level Minneapolis Center
02:09PM 43.5661 -96.6458 266° West 446 513 43,000  Level Minneapolis Center
02:10PM 43.5564 -96.8181 266° West 450 518 43,000  Level Minneapolis Center
02:11PM 43.5447 -97.0244 266° West 450 518 43,000  Level Minneapolis Center
02:12PM 43.5344 -97.1942 265° West 447 514 43,000  Level Minneapolis Center
02:14PM 43.5242 -97.3653 265° West 448 516 43,000  Level Minneapolis Center
02:15PM 43.5136 -97.5378 265° West 450 518 43,000  Level Minneapolis Center
02:16PM 43.5022 -97.7117 265° West 454 522 43,000  Level Minneapolis Center
02:17PM 43.4917 -97.8853 265° West 456 525 43,000  Level Minneapolis Center
02:18PM 43.4800 -98.0594 265° West 456 525 43,000  Level Minneapolis Center
02:19PM 43.4661 -98.2708 265° West 462 532 43,000  Level Minneapolis Center
02:20PM 43.4525 -98.4461 264° West 462 532 43,000  Level Minneapolis Center
02:21PM 43.4403 -98.6211 265° West 461 531 43,000  Level Minneapolis Center
02:22PM 43.4272 -98.8014 264° West 463 533 43,000  Level Minneapolis Center
02:23PM 43.4150 -98.9778 265° West 463 533 43,000  Level Minneapolis Center
02:24PM 43.4014 -99.1547 264° West 465 535 43,000  Level Minneapolis Center
02:25PM 43.3867 -99.3294 263° West 461 531 43,000  Level Minneapolis Center
02:26PM 43.3697 -99.5417 264° West 464 534 43,000  Level Minneapolis Center
02:27PM 43.3564 -99.7178 264° West 464 534 43,000  Level Minneapolis Center
02:28PM 43.3419 -99.8931 264° West 462 532 43,000  Level Minneapolis Center
02:29PM 43.3267 -100.0697 263° West 464 534 43,000  Level Minneapolis Center
02:30PM 43.3119 -100.2428 263° West 462 532 43,000  Level Minneapolis Center
02:31PM 43.2964 -100.4200 263° West 462 532 43,000  Level Minneapolis Center
02:31PM 43.2908 -100.4897 264° West 469 540 43,000  Level Denver Center
02:32PM 43.2742 -100.6658 263° West 465 535 43,000  Level Denver Center
02:33PM 43.2586 -100.8369 263° West 455 524 43,000  Level Denver Center
02:34PM 43.2431 -101.0083 263° West 452 520 43,000  Level Denver Center
02:35PM 43.2269 -101.1789 263° West 451 519 43,000  Level Denver Center
02:37PM 43.2108 -101.3483 263° West 449 517 43,000  Level Denver Center
02:38PM 43.1911 -101.5519 263° West 447 514 43,000  Level Denver Center
02:39PM 43.1744 -101.7214 262° West 449 517 43,000  Level Denver Center
02:40PM 43.1567 -101.8944 262° West 449 517 43,000  Level Denver Center
02:41PM 43.1406 -102.0581 262° West 453 521 43,000  Level Denver Center
02:42PM 43.1211 -102.2472 262° West 450 518 43,000  Level Denver Center
02:43PM 43.1031 -102.4103 261° West 455 524 43,000  Level Denver Center
02:44PM 43.0836 -102.6025 262° West 457 526 43,000  Level Denver Center
02:45PM 43.0656 -102.7664 261° West 456 525 43,000  Level Denver Center
02:46PM 43.0433 -102.9594 261° West 460 529 43,000  Level Denver Center
02:47PM 43.0256 -103.1269 262° West 465 535 43,000  Level Denver Center
02:48PM 43.0056 -103.2928 261° West 462 532 43,000  Level Denver Center
02:49PM 42.9839 -103.4869 261° West 463 533 43,000  Level Denver Center
02:50PM 42.9656 -103.6522 261° West 461 531 43,000  Level Denver Center
02:51PM 42.9417 -103.8450 260° West 463 533 43,000  Level Denver Center
02:52PM 42.9233 -104.0100 261° West 462 532 43,000  Level Denver Center
02:53PM 42.8997 -104.2033 261° West 465 535 43,000  Level Denver Center
02:54PM 42.8786 -104.3700 260° West 467 537 43,000  Level Denver Center
02:55PM 42.8547 -104.5647 261° West 472 543 43,000  Level Denver Center
02:56PM 42.8331 -104.7325 260° West 475 547 43,000  Level Denver Center
02:57PM 42.8081 -104.9283 260° West 475 547 43,000  Level Denver Center
02:58PM 42.7861 -105.0975 260° West 477 549 43,000  Level Denver Center
02:59PM 42.7603 -105.2947 260° West 476 548 43,000  Level Denver Center
03:00PM 42.7378 -105.4633 260° West 476 548 43,000  Level Denver Center
03:01PM 42.7144 -105.6306 259° West 473 544 43,000  Level Denver Center
03:02PM 42.6878 -105.8275 260° West 475 547 43,000  Level Denver Center
03:03PM 42.6639 -105.9953 259° West 474 545 43,000  Level Denver Center
03:04PM 42.6372 -106.1919 260° West 473 544 43,000  Level Denver Center
03:05PM 42.6142 -106.3586 259° West 470 541 43,000  Level Denver Center
03:06PM 42.5856 -106.5536 259° West 471 542 43,000  Level Denver Center
03:07PM 42.5617 -106.7219 259° West 474 545 43,000  Level Denver Center
03:08PM 42.5325 -106.9111 258° West 467 537 43,000  Level Denver Center
03:09PM 42.5083 -107.0767 259° West 467 537 43,000  Level Denver Center
03:10PM 42.4831 -107.2444 259° West 473 544 43,000  Level Salt Lake Center
03:11PM 42.4578 -107.4122 259° West 475 547 43,000  Level Salt Lake Center
03:12PM 42.4489 -107.4681 258° West 479 551 43,000  Level Denver Center
03:13PM 42.4192 -107.6633 258° West 476 548 43,000  Level Denver Center
03:13PM 42.4056 -107.7775 261° West 478 550 43,000  Level Salt Lake Center
03:15PM 42.3758 -107.9683 258° West 466 536 43,000  Level Salt Lake Center
03:16PM 42.3514 -108.1358 259° West 474 545 43,000  Level Salt Lake Center
03:17PM 42.3231 -108.3308 259° West 475 547 43,000  Level Salt Lake Center
03:18PM 42.2997 -108.4967 259° West 472 543 43,000  Level Salt Lake Center
03:19PM 42.2719 -108.6878 259° West 468 539 43,000  Level Salt Lake Center
03:20PM 42.2450 -108.8528 258° West 471 542 43,000  Level Salt Lake Center
03:21PM 42.2156 -109.0489 259° West 479 551 43,000  Level Salt Lake Center
03:22PM 42.1886 -109.2175 258° West 482 555 43,000  Level Salt Lake Center
03:23PM 42.1581 -109.4114 258° West 478 550 43,000  Level Salt Lake Center
03:24PM 42.1311 -109.5792 258° West 480 552 43,000  Level Salt Lake Center
03:25PM 42.1006 -109.7733 258° West 477 549 43,000  Level Salt Lake Center
03:26PM 42.0722 -109.9392 257° West 477 549 43,000  Level Salt Lake Center
03:27PM 42.0403 -110.1347 258° West 480 552 43,000  Level Salt Lake Center
03:28PM 42.0136 -110.3008 258° West 478 550 43,000  Level Salt Lake Center
03:29PM 41.9808 -110.4942 257° West 475 547 43,000  Level Salt Lake Center
03:30PM 41.9531 -110.6567 257° West 469 540 43,000  Level Salt Lake Center
03:31PM 41.9261 -110.8192 257° West 467 537 43,000  Level Salt Lake Center
03:32PM 41.8942 -110.9994 257° West 471 542 43,000  Level Salt Lake Center
03:33PM 41.8650 -111.1692 257° West 470 541 43,000  Level Salt Lake Center
03:34PM 41.8344 -111.3408 257° West 474 545 43,000  Level Salt Lake Center
03:35PM 41.7983 -111.5439 257° West 471 542 43,000  Level Salt Lake Center
03:36PM 41.7669 -111.7142 256° West 474 545 43,000  Level Salt Lake Center
03:37PM 41.7364 -111.8867 257° West 479 551 43,000  Level Salt Lake Center
03:38PM 41.7044 -112.0581 256° West 479 551 43,000  Level Salt Lake Center
03:39PM 41.6725 -112.2300 256° West 480 552 43,000  Level Salt Lake Center
03:40PM 41.6347 -112.4361 256° West 479 551 43,000  Level Salt Lake Center
03:41PM 41.6019 -112.6103 256° West 485 558 43,000  Level Salt Lake Center
03:42PM 41.5700 -112.7828 256° West 482 555 43,000  Level Salt Lake Center
03:43PM 41.5344 -112.9533 254° West 480 552 43,000  Level Salt Lake Center
03:44PM 41.5031 -113.1253 256° West 479 551 43,000  Level Salt Lake Center
03:45PM 41.4681 -113.2981 255° West 483 556 43,000  Level Salt Lake Center
03:46PM 41.4286 -113.5056 256° West 485 558 43,000  Level Salt Lake Center
03:47PM 41.3947 -113.6761 255° West 480 552 43,000  Level Salt Lake Center
03:49PM 41.3592 -113.8492 255° West 485 558 43,000  Level Salt Lake Center
03:50PM 41.3178 -114.0217 252° West 488 562 43,000  Level Salt Lake Center
03:51PM 41.2756 -114.1939 252° West 490 564 43,000  Level Salt Lake Center
03:52PM 41.2336 -114.3642 252° West 488 562 43,000  Level Salt Lake Center
03:53PM 41.1911 -114.5361 252° West 490 564 43,000  Level Salt Lake Center
03:54PM 41.1483 -114.7081 252° West 491 565 43,000  Level Salt Lake Center
03:55PM 41.1000 -114.8969 251° West 493 567 43,000  Level Salt Lake Center
03:56PM 41.0525 -115.0886 252° West 490 564 43,000  Level Salt Lake Center
03:57PM 41.0094 -115.2525 251° West 491 565 43,000  Level Salt Lake Center
03:58PM 40.9672 -115.4161 251° West 493 567 43,000  Level Salt Lake Center
03:59PM 40.9183 -115.6086 251° West 495 570 43,000  Level Salt Lake Center
04:00PM 40.8750 -115.7736 251° West 497 572 43,000  Level Salt Lake Center
04:01PM 40.8261 -115.9661 252° West 496 571 43,000  Level Salt Lake Center
04:02PM 40.7806 -116.1294 250° West 497 572 43,000  Level Salt Lake Center
04:03PM 40.7306 -116.3225 251° West 500 575 43,000  Level Salt Lake Center
04:04PM 40.6872 -116.4858 251° West 496 571 43,000  Level Salt Lake Center
04:05PM 40.6431 -116.6497 250° West 497 572 43,000  Level Salt Lake Center
04:06PM 40.5928 -116.8392 251° West 497 572 43,000  Level Salt Lake Center
04:07PM 40.5414 -117.0289 250° West 501 577 43,000  Level Salt Lake Center
04:08PM 40.4992 -117.1928 251° West 502 578 43,000  Level Salt Lake Center
04:09PM 40.4478 -117.3847 251° West 502 578 43,000  Level Salt Lake Center
04:10PM 40.4039 -117.5486 251° West 500 575 43,000  Level Salt Lake Center
04:11PM 40.3606 -117.7139 251° West 500 575 43,000  Level Salt Lake Center
04:12PM 40.3164 -117.8792 251° West 503 579 43,000  Level Oakland Center
04:13PM 40.2711 -118.0489 251° West 501 577 43,000  Level Oakland Center
04:14PM 40.2250 -118.2194 251° West 500 575 43,000  Level Oakland Center
04:15PM 40.1678 -118.4242 250° West 497 572 43,000  Level Oakland Center
04:16PM 40.1169 -118.5939 249° West 501 577 43,000  Level Oakland Center
04:17PM 40.0367 -118.7447 235° Southwest 506 582 43,000  Level Oakland Center
04:18PM 39.9561 -118.8925 235° Southwest 502 578 43,000  Level Oakland Center
04:19PM 39.8733 -119.0392 234° Southwest 506 582 43,000  Level Oakland Center
04:20PM 39.7922 -119.1869 234° Southwest 507 583 43,000  Level Oakland Center
04:21PM 39.7100 -119.3342 234° Southwest 507 583 43,000  Level Oakland Center
04:22PM 39.6147 -119.5072 234° Southwest 488 562 43,000  Level Oakland Center
04:23PM 39.5336 -119.6544 234° Southwest 504 580 43,000  Level Oakland Center
04:24PM 39.4589 -119.8089 238° Southwest 508 585 43,000 -60 Level Oakland Center
04:25PM 39.3833 -119.9633 238° Southwest 514 592 42,900 -600 Descending Oakland Center
04:26PM 39.3114 -120.1119 238° Southwest 501 577 41,800 -1,380 Descending Oakland Center
04:27PM 39.2278 -120.2764 237° Southwest 494 568 40,100 -1,620 Descending Oakland Center
04:28PM 39.1556 -120.4225 238° Southwest 486 559 38,600 -1,500 Descending Oakland Center
04:29PM 39.0811 -120.5758 238° Southwest 501 577 37,100 -1,620 Descending Oakland Center
04:30PM 39.0047 -120.7292 237° Southwest 508 585 35,400 -1,680 Descending Oakland Center
04:31PM 38.9269 -120.8836 237° Southwest 515 593 33,700 -1,860 Descending Oakland Center
04:32PM 38.8497 -121.0381 237° Southwest 516 594 31,700 -1,980 Descending Oakland Center
04:34PM 38.7717 -121.1944 237° Southwest 522 601 29,700 -2,220 Descending Oakland Center
04:34PM 38.7500 -121.2500 243° Southwest 463 533 28,900 -900 Descending Northern Cal TRACON
04:35PM 38.6833 -121.3500 230° Southwest 520 598 28,500 -2,040 Descending Northern Cal TRACON
04:36PM 38.5833 -121.5667 239° Southwest 441 507 24,700 -3,000 Descending Northern Cal TRACON
04:37PM 38.5297 -121.6686 236° Southwest 495 570 23,300 -2,220 Descending Oakland Center
04:38PM 38.4564 -121.8103 237° Southwest 484 557 20,900 -2,700 Descending Oakland Center
04:39PM 38.3839 -121.9519 237° Southwest 467 537 17,900 -3,000 Descending Oakland Center
04:40PM 38.3256 -122.0658 237° Southwest 385 443 14,800 -2,940 Descending Oakland Center
04:41PM 38.2850 -122.1619 242° Southwest 318 366 11,900 -2,940 Descending Oakland Center
04:42PM 38.2781 -122.2592 265° West 283 326 8,900 -2,640 Descending Oakland Center
04:43PM 38.2992 -122.3289 291° West 246 283 6,500 -2,580 Descending Oakland Center
04:44PM 38.3231 -122.2811 57° Northeast 217 250 3,700 -2,340 Descending Oakland Center
04:45PM 38.2769 -122.2528 154° Southeast 171 197 1,800 -1,920 Descending Oakland Center